Weather at Blytheville Municipal Airport

Public forecast

Using degrees Fahrenheit for public forecast. Weather courtesy of forecast.io.

Current aviation weather report (METAR) for Blytheville Municipal Airport

2024/05/29 17:53 (retrieved 16 minutes ago)

KHKA 291753Z AUTO 05007KT 10SM CLR 28/11 A3016 RMK AO2 SLP209 T02780106 10278 20183 58008

Closest aviation forecast (TAF) to Blytheville Municipal Airport

Closest forecast is Jonesboro Municipal Airport, 40.2 nm (74.5 km) W.

2024/05/29 18:33 Ammendment (retrieved 0 seconds ago)

TAF KJBR 291731Z 2918/3018 07007KT P6SM FEW060 BKN200 FM300400 06004KT P6SM BKN150 FM301400 10008KT P6SM FEW060 AMD NOT SKED